Time;durP1;ratioP1;P1;durP2;ratioP2;P2;SDS_P1;SDS_P2;PMS_P1;PMS_P2;Temp;Humidity;BMP_temperature;BMP_pressure;BME280_temperature;BME280_humidity;BME280_pressure;Samples;Min_cycle;Max_cycle;Signal;HPM_P1;HPM_P2
2023/01/18 00:07:35;;;;;;;;;;;;;;;1.50;82.19;99173.66;20911320;28;20022;-57
2023/01/18 00:17:57;;;;;;;;;;;;;;;1.50;82.24;99175.38;20946662;28;19935;-57
2023/01/18 00:28:21;;;;;;;;;;;;;;;1.47;81.92;99177.97;20932520;28;20042;-57
2023/01/18 00:38:50;;;;;;;;;;;;;;;1.43;81.36;99184.03;20936561;28;19940;-58
2023/01/18 00:49:11;;;;;;;;;;;;;;;1.45;81.34;99195.00;20922299;28;19994;-57
2023/01/18 00:59:32;;;;;;;;;;;;;;;1.36;82.11;99193.47;20933290;28;20272;-57
2023/01/18 01:09:56;;;;;;;;;;;;;;;1.28;82.79;99194.50;20938690;28;20024;-57
2023/01/18 01:30:58;;;;;;;;;;;;;;;1.21;83.43;99226.06;20940779;28;19978;-58
2023/01/18 01:41:24;;;;;;;;;;;;;;;1.11;82.54;99234.72;20948493;28;19958;-57
2023/01/18 01:52:02;;;;;;;;;;;;;;;1.08;82.83;99234.78;20938956;28;20077;-59
2023/01/18 02:02:23;;;;;;;;;;;;;;;1.07;83.30;99243.28;20946159;28;19943;-57
2023/01/18 02:12:46;;;;;;;;;;;;;;;1.08;82.05;99227.16;20924352;28;20451;-57
2023/01/18 02:23:16;;;;;;;;;;;;;;;1.07;83.43;99248.38;20932354;28;19982;-57
2023/01/18 02:34:01;;;;;;;;;;;;;;;1.03;82.60;99243.34;20931365;28;20364;-57
2023/01/18 02:55:11;;;;;;;;;;;;;;;0.96;83.55;99241.78;20906283;28;20364;-58
2023/01/18 03:05:34;;;;;;;;;;;;;;;0.93;83.27;99251.19;20935552;28;19970;-59
2023/01/18 03:16:08;;;;;;;;;;;;;;;0.76;82.82;99256.53;20930319;28;19928;-58
2023/01/18 03:26:32;;;;;;;;;;;;;;;0.82;83.00;99253.06;20923375;28;19982;-59
2023/01/18 03:36:55;;;;;;;;;;;;;;;0.79;83.37;99248.84;20935782;28;20027;-58
2023/01/18 03:47:16;;;;;;;;;;;;;;;0.79;83.04;99264.13;20946017;28;19968;-57
2023/01/18 03:57:37;;;;;;;;;;;;;;;0.73;82.57;99266.75;20940694;28;19924;-59
2023/01/18 04:07:59;;;;;;;;;;;;;;;0.70;83.31;99278.69;20959303;28;19925;-57
2023/01/18 04:18:20;;;;;;;;;;;;;;;0.69;83.35;99293.13;20945148;28;20272;-57
2023/01/18 04:28:42;;;;;;;;;;;;;;;0.69;83.87;99288.06;20934765;28;19924;-57
2023/01/18 04:39:03;;;;;;;;;;;;;;;0.65;82.99;99295.75;20932123;28;19979;-56
2023/01/18 04:49:26;;;;;;;;;;;;;;;0.59;83.54;99308.53;20943091;28;19924;-57
2023/01/18 04:59:47;;;;;;;;;;;;;;;0.56;83.35;99319.63;20960180;28;20397;-58
2023/01/18 05:10:09;;;;;;;;;;;;;;;0.51;83.87;99318.84;20943284;28;19924;-57
2023/01/18 05:20:30;;;;;;;;;;;;;;;0.55;84.72;99334.91;20948717;28;19924;-57
2023/01/18 05:30:53;;;;;;;;;;;;;;;0.57;85.18;99353.53;20939402;28;19925;-57
2023/01/18 05:41:14;;;;;;;;;;;;;;;0.55;84.40;99351.00;20943779;28;19928;-57
2023/01/18 05:51:36;;;;;;;;;;;;;;;0.53;83.34;99364.63;20936531;28;19925;-57
2023/01/18 06:01:58;;;;;;;;;;;;;;;0.49;83.38;99374.00;20939031;28;19978;-57
2023/01/18 06:12:20;;;;;;;;;;;;;;;0.51;83.76;99384.16;20917275;28;20383;-58
2023/01/18 06:22:44;;;;;;;;;;;;;;;0.52;84.20;99386.66;20929269;28;19924;-58
2023/01/18 06:33:06;;;;;;;;;;;;;;;0.55;83.99;99395.97;20929047;28;19933;-58
2023/01/18 06:43:28;;;;;;;;;;;;;;;0.55;83.60;99406.16;20926180;28;19994;-57
2023/01/18 06:53:49;;;;;;;;;;;;;;;0.47;83.02;99418.13;20944837;28;20269;-59
2023/01/18 07:04:11;;;;;;;;;;;;;;;0.46;84.39;99442.69;20950420;28;19971;-57
2023/01/18 07:14:33;;;;;;;;;;;;;;;0.45;83.97;99456.31;20942126;28;19967;-59
2023/01/18 07:24:54;;;;;;;;;;;;;;;0.37;83.28;99473.34;20939642;28;19929;-57
2023/01/18 07:35:17;;;;;;;;;;;;;;;0.47;83.41;99489.34;20938230;28;19932;-56
2023/01/18 07:45:38;;;;;;;;;;;;;;;0.46;82.94;99502.94;20945994;28;19924;-57
2023/01/18 07:56:04;;;;;;;;;;;;;;;0.46;83.03;99513.94;20949881;28;19924;-59
2023/01/18 08:06:26;;;;;;;;;;;;;;;0.49;84.91;99521.56;20940086;28;20639;-56
2023/01/18 08:16:47;;;;;;;;;;;;;;;0.45;83.56;99532.63;20947799;28;20663;-58
2023/01/18 08:27:09;;;;;;;;;;;;;;;0.46;84.08;99543.66;20937513;28;20385;-57
2023/01/18 08:37:31;;;;;;;;;;;;;;;0.50;84.16;99555.44;20914160;28;20004;-57
2023/01/18 08:47:57;;;;;;;;;;;;;;;0.49;84.61;99569.88;20975815;28;19924;-56
2023/01/18 08:58:18;;;;;;;;;;;;;;;0.49;84.81;99585.16;20943386;28;19932;-55
2023/01/18 09:08:40;;;;;;;;;;;;;;;0.58;83.73;99594.38;20930118;28;19924;-56
2023/01/18 09:19:05;;;;;;;;;;;;;;;0.69;84.44;99618.03;20933733;28;19925;-56
2023/01/18 09:29:26;;;;;;;;;;;;;;;0.76;83.41;99610.31;20944758;28;19932;-57
2023/01/18 09:39:48;;;;;;;;;;;;;;;0.89;82.77;99627.16;20929348;28;19955;-57
2023/01/18 09:50:17;;;;;;;;;;;;;;;1.02;82.75;99643.13;20925131;28;19935;-58
2023/01/18 10:00:41;;;;;;;;;;;;;;;1.23;83.01;99653.06;20916759;28;19928;-55
2023/01/18 10:11:07;;;;;;;;;;;;;;;1.37;82.14;99650.34;20926102;28;19924;-56
2023/01/18 10:21:50;;;;;;;;;;;;;;;1.49;83.07;99660.38;20927221;28;19935;-57
2023/01/18 10:32:16;;;;;;;;;;;;;;;1.67;82.25;99647.41;20926089;28;19933;-57
2023/01/18 10:42:44;;;;;;;;;;;;;;;1.81;82.09;99648.06;20940423;28;19932;-56
2023/01/18 10:53:24;;;;;;;;;;;;;;;2.02;81.70;99650.31;20947545;28;19924;-59
2023/01/18 11:03:47;;;;;;;;;;;;;;;2.24;81.14;99641.47;20922044;28;19925;-56
2023/01/18 11:14:22;;;;;;;;;;;;;;;2.37;80.64;99640.41;20928411;28;19955;-57
2023/01/18 11:24:44;;;;;;;;;;;;;;;2.56;80.28;99646.03;20931609;28;19978;-56
2023/01/18 11:35:07;;;;;;;;;;;;;;;2.71;79.37;99627.91;20924038;28;20268;-57
2023/01/18 11:45:28;;;;;;;;;;;;;;;2.89;78.83;99628.38;20924114;28;19994;-57
2023/01/18 11:55:54;;;;;;;;;;;;;;;3.04;78.35;99628.09;20925139;28;20272;-57
2023/01/18 12:06:19;;;;;;;;;;;;;;;3.15;78.05;99627.06;20957083;28;19936;-56
2023/01/18 12:16:56;;;;;;;;;;;;;;;3.22;78.91;99623.53;20948699;28;19929;-57
2023/01/18 12:27:38;;;;;;;;;;;;;;;3.30;78.45;99624.19;20934083;28;19928;-58
2023/01/18 12:38:16;;;;;;;;;;;;;;;3.45;77.54;99623.88;20942388;28;19954;-57
2023/01/18 12:48:47;;;;;;;;;;;;;;;3.65;77.18;99619.19;20940326;28;20369;-59
2023/01/18 12:59:16;;;;;;;;;;;;;;;3.68;77.10;99621.69;20931959;28;20452;-57
2023/01/18 13:09:42;;;;;;;;;;;;;;;3.66;77.23;99631.13;20940815;28;20014;-58
2023/01/18 13:20:08;;;;;;;;;;;;;;;3.73;76.89;99638.63;20950844;28;19932;-58
2023/01/18 13:30:31;;;;;;;;;;;;;;;3.77;76.95;99641.97;20932602;28;20375;-58
2023/01/18 13:40:59;;;;;;;;;;;;;;;3.89;78.27;99650.19;20936606;28;19928;-60
2023/01/18 13:51:27;;;;;;;;;;;;;;;4.00;76.85;99655.06;20939510;28;20414;-58
2023/01/18 14:01:49;;;;;;;;;;;;;;;4.14;76.99;99665.00;20930915;28;19935;-59
2023/01/18 14:12:11;;;;;;;;;;;;;;;4.17;75.47;99658.09;20930146;28;20322;-56
2023/01/18 14:23:00;;;;;;;;;;;;;;;4.12;76.67;99667.56;20927191;28;19940;-57
2023/01/18 14:33:34;;;;;;;;;;;;;;;4.05;77.07;99660.91;20932622;28;20371;-56
2023/01/18 14:43:55;;;;;;;;;;;;;;;4.02;76.47;99655.88;20930913;28;19974;-58
2023/01/18 14:54:17;;;;;;;;;;;;;;;3.98;76.31;99655.09;20924635;28;19947;-58
2023/01/18 15:04:43;;;;;;;;;;;;;;;4.04;76.35;99674.59;20912279;28;19978;-56
2023/01/18 15:15:13;;;;;;;;;;;;;;;3.83;77.36;99660.56;20928932;28;19925;-56
2023/01/18 15:25:35;;;;;;;;;;;;;;;3.70;77.68;99668.53;20932578;28;20489;-58
2023/01/18 15:35:57;;;;;;;;;;;;;;;3.57;78.13;99672.22;20936072;28;19924;-58
2023/01/18 15:46:19;;;;;;;;;;;;;;;3.39;78.03;99672.59;20944575;28;19925;-57
2023/01/18 15:56:40;;;;;;;;;;;;;;;3.30;78.94;99675.31;20944044;28;19978;-56
2023/01/18 16:07:20;;;;;;;;;;;;;;;3.21;79.45;99681.44;20937579;28;19931;-59
2023/01/18 16:17:43;;;;;;;;;;;;;;;3.13;79.83;99693.53;20954738;28;19925;-58
2023/01/18 16:28:05;;;;;;;;;;;;;;;3.08;80.15;99697.06;20928244;28;19928;-56
2023/01/18 16:38:26;;;;;;;;;;;;;;;3.04;79.69;99706.47;20927072;28;20470;-57
2023/01/18 16:48:47;;;;;;;;;;;;;;;3.02;80.06;99703.94;20940448;28;19932;-56
2023/01/18 16:59:12;;;;;;;;;;;;;;;2.99;80.56;99711.66;20944102;28;19979;-56
2023/01/18 17:09:35;;;;;;;;;;;;;;;2.94;80.79;99723.69;20938850;28;19955;-56
2023/01/18 17:20:19;;;;;;;;;;;;;;;2.84;80.91;99719.59;20942748;28;19947;-56
2023/01/18 17:30:42;;;;;;;;;;;;;;;2.84;81.16;99728.94;20936911;28;19970;-57
2023/01/18 17:41:04;;;;;;;;;;;;;;;2.82;81.55;99731.53;20940757;28;19931;-56
2023/01/18 17:51:27;;;;;;;;;;;;;;;2.76;81.44;99748.69;20942361;28;19925;-56
2023/01/18 18:01:49;;;;;;;;;;;;;;;2.76;81.84;99741.88;20953101;28;19928;-59
2023/01/18 18:12:11;;;;;;;;;;;;;;;2.80;81.55;99752.88;20942598;28;19951;-58
2023/01/18 18:22:32;;;;;;;;;;;;;;;2.93;81.07;99759.47;20932493;28;20407;-57
2023/01/18 18:32:54;;;;;;;;;;;;;;;3.03;81.26;99774.63;20925485;28;20381;-57
2023/01/18 18:43:16;;;;;;;;;;;;;;;3.09;80.80;99771.94;20920312;28;19928;-57
2023/01/18 18:53:37;;;;;;;;;;;;;;;3.09;81.26;99771.13;20910978;28;19932;-57
2023/01/18 19:04:01;;;;;;;;;;;;;;;3.16;81.62;99771.84;20925668;28;20315;-58
2023/01/18 19:14:26;;;;;;;;;;;;;;;3.20;81.66;99768.38;20953123;28;19990;-59
2023/01/18 19:24:47;;;;;;;;;;;;;;;3.18;82.36;99763.28;20938449;28;19928;-58
2023/01/18 19:35:09;;;;;;;;;;;;;;;3.17;81.98;99773.53;20942511;28;19981;-59
2023/01/18 19:45:30;;;;;;;;;;;;;;;3.21;81.73;99777.72;20950258;28;19924;-57
2023/01/18 19:55:53;;;;;;;;;;;;;;;3.30;81.00;99775.00;20942089;28;19928;-57
2023/01/18 20:06:27;;;;;;;;;;;;;;;3.34;80.80;99774.06;20945718;28;19975;-58
2023/01/18 20:16:48;;;;;;;;;;;;;;;3.40;80.59;99771.41;20943258;28;19973;-58
2023/01/18 20:27:12;;;;;;;;;;;;;;;3.45;80.68;99779.84;20916646;28;20136;-57
2023/01/18 20:37:36;;;;;;;;;;;;;;;3.48;80.21;99772.13;20921131;28;19925;-57
2023/01/18 20:47:58;;;;;;;;;;;;;;;3.51;79.99;99772.06;20932851;28;19929;-58
2023/01/18 20:58:21;;;;;;;;;;;;;;;3.57;80.95;99759.16;20932692;28;20443;-58
2023/01/18 21:08:42;;;;;;;;;;;;;;;3.62;80.53;99782.94;20926952;28;20002;-57
2023/01/18 21:19:04;;;;;;;;;;;;;;;3.63;80.44;99774.38;20912056;28;20401;-58
2023/01/18 21:29:25;;;;;;;;;;;;;;;3.81;80.17;99782.53;20933064;28;20059;-57
2023/01/18 21:39:46;;;;;;;;;;;;;;;3.89;80.58;99780.69;20933132;28;19970;-57
2023/01/18 22:00:48;;;;;;;;;;;;;;;3.88;81.48;99803.75;20922241;28;19984;-57
2023/01/18 22:11:10;;;;;;;;;;;;;;;3.97;81.00;99816.34;20940033;28;19924;-58
2023/01/18 22:21:31;;;;;;;;;;;;;;;4.04;80.56;99817.91;20926723;28;19975;-58
2023/01/18 22:31:55;;;;;;;;;;;;;;;4.03;81.48;99829.00;20926318;28;20048;-57
2023/01/18 22:42:16;;;;;;;;;;;;;;;4.04;81.25;99838.38;20929960;28;19929;-58
2023/01/18 22:52:37;;;;;;;;;;;;;;;4.05;81.83;99840.06;20925750;28;20028;-57
2023/01/18 23:02:59;;;;;;;;;;;;;;;4.05;82.24;99840.06;20917956;28;20475;-57
2023/01/18 23:13:20;;;;;;;;;;;;;;;4.06;82.86;99846.88;20914636;28;20377;-58
2023/01/18 23:23:42;;;;;;;;;;;;;;;4.12;82.42;99845.91;20926731;28;19928;-57
2023/01/18 23:34:03;;;;;;;;;;;;;;;4.08;82.49;99845.13;20928029;28;19924;-58
2023/01/18 23:55:05;;;;;;;;;;;;;;;4.14;82.87;99852.66;20940776;28;19933;-57
